Time;durP1;ratioP1;P1;durP2;ratioP2;P2;SDS_P1;SDS_P2;PMS_P1;PMS_P2;Temp;Humidity;BMP_temperature;BMP_pressure;BME280_temperature;BME280_humidity;BME280_pressure;Samples;Min_cycle;Max_cycle;Signal;HPM_P1;HPM_P2
2022/02/26 00:02:04;;;;;;;14.43;3.50;;;12.90;95.10;;;;;;4995582;28;20387;-67
2022/02/26 00:04:29;;;;;;;12.55;3.58;;;12.90;94.90;;;;;;5012953;28;20513;-65
2022/02/26 00:06:55;;;;;;;10.05;2.85;;;13.00;94.80;;;;;;5013030;28;20482;-66
2022/02/26 00:09:21;;;;;;;9.98;2.70;;;13.00;94.70;;;;;;5012972;28;20478;-65
2022/02/26 00:11:46;;;;;;;9.10;2.70;;;13.10;94.50;;;;;;5013116;28;20032;-65
2022/02/26 00:14:12;;;;;;;10.15;3.25;;;13.10;94.20;;;;;;5012380;28;20026;-66
2022/02/26 00:16:38;;;;;;;9.57;3.30;;;13.10;94.20;;;;;;5013065;28;20018;-65
2022/02/26 00:19:03;;;;;;;9.38;3.20;;;13.20;94.40;;;;;;5012895;28;20084;-67
2022/02/26 00:21:29;;;;;;;9.02;2.97;;;13.10;93.80;;;;;;5012947;28;20200;-66
2022/02/26 00:23:55;;;;;;;11.38;3.38;;;13.10;93.60;;;;;;5012916;28;20053;-66
2022/02/26 00:26:22;;;;;;;9.02;3.33;;;13.10;93.60;;;;;;5012856;28;20025;-66
2022/02/26 00:28:48;;;;;;;7.43;3.70;;;13.10;93.50;;;;;;5012971;28;20052;-67
2022/02/26 00:31:15;;;;;;;6.45;3.33;;;13.10;93.30;;;;;;5012928;28;20025;-66
2022/02/26 00:33:41;;;;;;;7.72;3.50;;;13.10;93.30;;;;;;5012939;28;20060;-67
2022/02/26 00:36:07;;;;;;;8.50;3.70;;;13.00;93.40;;;;;;5013003;28;20053;-68
2022/02/26 00:38:33;;;;;;;7.75;3.10;;;13.00;93.50;;;;;;5012786;28;20029;-66
2022/02/26 00:40:58;;;;;;;8.95;3.63;;;13.00;93.40;;;;;;5012698;28;20418;-66
2022/02/26 00:43:24;;;;;;;9.38;3.78;;;13.00;93.40;;;;;;5012624;28;20065;-66
2022/02/26 00:45:50;;;;;;;7.95;3.53;;;12.90;93.50;;;;;;5012485;28;20046;-65
2022/02/26 00:48:16;;;;;;;8.23;3.70;;;12.90;93.50;;;;;;5012862;28;20529;-66
2022/02/26 00:50:42;;;;;;;8.25;4.00;;;12.90;93.60;;;;;;5012595;28;20437;-66
2022/02/26 00:53:07;;;;;;;10.50;3.95;;;12.80;93.90;;;;;;5012775;28;20028;-64
2022/02/26 00:55:34;;;;;;;10.30;3.90;;;12.80;94.10;;;;;;5012653;28;20030;-65
2022/02/26 00:58:02;;;;;;;8.00;3.85;;;12.80;94.10;;;;;;5012672;28;20101;-65
2022/02/26 01:00:28;;;;;;;11.27;4.45;;;12.80;94.30;;;;;;5012473;28;20037;-66
2022/02/26 01:02:54;;;;;;;6.97;3.67;;;12.70;94.30;;;;;;5012543;28;20021;-66
2022/02/26 01:05:19;;;;;;;9.20;4.20;;;12.70;94.40;;;;;;5012489;28;20033;-65
2022/02/26 01:07:47;;;;;;;9.48;3.70;;;12.70;94.30;;;;;;5012429;28;20045;-66
2022/02/26 01:10:13;;;;;;;6.40;3.33;;;12.70;94.60;;;;;;5012607;28;20030;-65
2022/02/26 01:12:39;;;;;;;7.68;3.30;;;12.60;94.80;;;;;;5012600;28;20029;-64
2022/02/26 01:15:06;;;;;;;8.25;3.53;;;12.70;94.90;;;;;;5012362;28;20395;-65
2022/02/26 01:17:32;;;;;;;6.65;3.50;;;12.70;94.80;;;;;;5012628;28;20489;-66
2022/02/26 01:19:59;;;;;;;9.52;3.47;;;12.70;94.80;;;;;;5012451;28;20030;-65
2022/02/26 01:22:25;;;;;;;10.27;3.70;;;12.60;94.90;;;;;;5012488;28;20029;-66
2022/02/26 01:24:51;;;;;;;7.75;3.35;;;12.60;95.10;;;;;;5012480;28;20030;-67
2022/02/26 01:27:17;;;;;;;6.18;2.97;;;12.50;95.10;;;;;;5015667;28;20038;-65
2022/02/26 01:29:42;;;;;;;5.82;2.80;;;12.50;95.00;;;;;;5015871;28;20084;-65
2022/02/26 01:32:08;;;;;;;8.73;3.42;;;12.50;95.10;;;;;;5015889;28;20339;-65
2022/02/26 01:34:34;;;;;;;9.25;3.45;;;12.40;95.10;;;;;;5015878;28;20037;-66
2022/02/26 01:37:03;;;;;;;8.32;3.97;;;12.30;95.10;;;;;;5015875;28;20026;-64
2022/02/26 01:39:29;;;;;;;10.63;4.65;;;12.30;95.20;;;;;;5015581;28;20034;-65
2022/02/26 01:41:57;;;;;;;10.00;4.07;;;12.30;95.70;;;;;;5015681;28;20150;-65
2022/02/26 01:44:23;;;;;;;11.68;4.10;;;12.30;95.70;;;;;;5015689;28;20117;-65
2022/02/26 01:46:49;;;;;;;10.05;3.95;;;12.30;95.70;;;;;;5015744;28;20042;-66
2022/02/26 01:49:15;;;;;;;11.43;5.05;;;12.30;95.50;;;;;;5015497;28;20034;-66
2022/02/26 01:51:41;;;;;;;9.90;4.35;;;12.30;95.50;;;;;;5015621;28;20030;-65
2022/02/26 01:54:07;;;;;;;10.50;4.43;;;12.20;95.50;;;;;;5015559;28;20294;-66
2022/02/26 01:56:33;;;;;;;9.38;4.20;;;12.20;95.60;;;;;;5015443;28;20428;-64
2022/02/26 01:58:59;;;;;;;8.65;4.45;;;12.20;95.60;;;;;;5015196;28;20033;-66
2022/02/26 02:01:24;;;;;;;8.90;4.47;;;12.20;95.70;;;;;;5015238;28;20026;-65
2022/02/26 02:03:50;;;;;;;11.48;5.03;;;12.10;95.70;;;;;;5015248;28;20018;-65
2022/02/26 02:06:17;;;;;;;10.82;4.70;;;12.10;95.80;;;;;;5015245;28;20037;-63
2022/02/26 02:08:44;;;;;;;9.43;4.90;;;12.20;95.90;;;;;;5015310;28;20180;-65
2022/02/26 02:11:10;;;;;;;9.55;5.18;;;12.10;96.10;;;;;;5015360;28;20437;-71
2022/02/26 02:13:35;;;;;;;15.80;5.63;;;12.10;96.10;;;;;;5015371;28;20025;-68
2022/02/26 02:16:01;;;;;;;13.77;5.72;;;12.10;96.30;;;;;;5015281;28;20022;-66
2022/02/26 02:18:27;;;;;;;9.25;5.97;;;12.10;96.20;;;;;;5015214;28;20435;-67
2022/02/26 02:20:53;;;;;;;12.10;6.47;;;12.10;96.50;;;;;;5015215;28;20034;-69
2022/02/26 02:23:19;;;;;;;13.73;6.55;;;12.10;96.40;;;;;;5015295;28;20119;-67
2022/02/26 02:25:45;;;;;;;13.57;6.68;;;12.20;96.40;;;;;;5014900;28;20110;-68
2022/02/26 02:28:11;;;;;;;10.90;6.40;;;12.20;96.30;;;;;;5014749;28;20034;-66
2022/02/26 02:30:37;;;;;;;11.52;6.70;;;12.10;96.30;;;;;;5014876;28;20022;-67
2022/02/26 02:33:03;;;;;;;12.93;6.85;;;12.10;96.50;;;;;;5014922;28;20034;-68
2022/02/26 02:35:33;;;;;;;11.05;6.53;;;12.10;96.50;;;;;;5014966;28;20124;-67
2022/02/26 02:38:02;;;;;;;11.15;6.65;;;12.10;96.60;;;;;;5014339;28;20034;-67
2022/02/26 02:40:28;;;;;;;13.82;6.32;;;12.00;96.50;;;;;;5014874;28;20028;-73
2022/02/26 02:42:54;;;;;;;11.43;6.07;;;11.90;96.60;;;;;;5015236;28;20033;-67
2022/02/26 02:45:21;;;;;;;7.63;3.90;;;11.70;96.90;;;;;;5014379;28;20132;-66
2022/02/26 02:47:47;;;;;;;5.80;2.47;;;11.40;96.40;;;;;;4996743;28;20124;-67
2022/02/26 02:50:15;;;;;;;5.18;1.60;;;11.20;95.60;;;;;;5014563;28;20098;-72
2022/02/26 02:52:43;;;;;;;3.03;1.10;;;10.80;95.10;;;;;;5014823;28;20171;-71
2022/02/26 02:55:09;;;;;;;3.63;1.08;;;10.50;95.10;;;;;;5014592;28;20072;-67
2022/02/26 02:57:35;;;;;;;1.92;0.80;;;10.20;95.00;;;;;;5014416;28;20383;-67
2022/02/26 03:00:02;;;;;;;1.23;0.88;;;10.00;95.00;;;;;;5014464;28;20026;-75
2022/02/26 03:02:28;;;;;;;1.02;0.70;;;9.80;95.10;;;;;;5014846;28;20426;-72
2022/02/26 03:04:53;;;;;;;1.50;0.55;;;9.60;94.90;;;;;;5015355;28;20022;-67
2022/02/26 03:07:19;;;;;;;1.25;0.68;;;9.40;95.00;;;;;;5016446;28;20037;-66
2022/02/26 03:09:45;;;;;;;0.75;0.43;;;9.30;94.80;;;;;;5017657;28;20053;-68
2022/02/26 03:12:10;;;;;;;0.30;0.30;;;9.10;94.20;;;;;;5015646;28;20022;-65
2022/02/26 03:14:37;;;;;;;0.45;0.38;;;9.00;93.80;;;;;;5014085;28;20034;-65
2022/02/26 03:17:03;;;;;;;0.73;0.40;;;8.80;93.80;;;;;;5014030;28;20144;-66
2022/02/26 03:19:28;;;;;;;1.90;0.40;;;8.70;93.30;;;;;;4996267;28;20117;-64
2022/02/26 03:21:54;;;;;;;0.40;0.30;;;8.60;93.40;;;;;;5013968;28;20475;-66
2022/02/26 03:24:19;;;;;;;0.30;0.30;;;8.60;93.40;;;;;;4996287;28;20368;-64
2022/02/26 03:26:45;;;;;;;0.93;0.35;;;8.50;93.20;;;;;;5013786;28;20506;-65
2022/02/26 03:29:11;;;;;;;0.32;0.32;;;8.50;93.10;;;;;;5013810;28;20026;-65
2022/02/26 03:31:38;;;;;;;0.57;0.32;;;8.40;93.00;;;;;;5013732;28;20606;-64
2022/02/26 03:34:04;;;;;;;0.52;0.30;;;8.40;93.10;;;;;;5013744;28;20132;-65
2022/02/26 03:36:34;;;;;;;1.08;0.50;;;8.30;93.10;;;;;;5013723;28;20022;-65
2022/02/26 03:39:00;;;;;;;0.70;0.43;;;8.30;93.40;;;;;;5013813;28;20156;-64
2022/02/26 03:41:26;;;;;;;1.25;0.40;;;8.30;93.20;;;;;;5013880;28;20029;-65
2022/02/26 03:43:51;;;;;;;0.32;0.30;;;8.30;93.00;;;;;;5013692;28;20105;-65
2022/02/26 03:46:17;;;;;;;0.50;0.43;;;8.30;92.70;;;;;;5013172;28;20125;-65
2022/02/26 03:48:43;;;;;;;0.47;0.47;;;8.20;92.60;;;;;;5012865;28;20026;-66
2022/02/26 03:51:12;;;;;;;2.08;0.50;;;8.20;92.70;;;;;;5013016;28;20391;-66
2022/02/26 03:53:38;;;;;;;0.55;0.40;;;8.20;91.60;;;;;;5013349;28;20038;-65
2022/02/26 03:56:04;;;;;;;0.50;0.45;;;8.20;92.80;;;;;;5013480;28;20080;-64
2022/02/26 03:58:29;;;;;;;1.27;0.60;;;8.30;92.30;;;;;;5013231;28;20127;-64
2022/02/26 04:00:55;;;;;;;1.55;0.40;;;8.20;92.20;;;;;;5013404;28;20057;-65
2022/02/26 04:03:21;;;;;;;0.60;0.43;;;8.30;92.20;;;;;;4995694;28;20467;-65
2022/02/26 04:05:47;;;;;;;0.68;0.47;;;8.20;92.00;;;;;;5013105;28;20088;-65
2022/02/26 04:08:12;;;;;;;1.00;0.50;;;8.20;91.90;;;;;;5013092;28;20045;-65
2022/02/26 04:10:38;;;;;;;1.27;0.47;;;8.30;91.80;;;;;;5013303;28;20022;-66
2022/02/26 04:13:04;;;;;;;1.17;0.50;;;8.30;91.50;;;;;;5013176;28;20030;-66
2022/02/26 04:15:31;;;;;;;0.65;0.40;;;8.30;91.60;;;;;;5013087;28;20018;-65
2022/02/26 04:17:58;;;;;;;0.65;0.30;;;8.40;90.90;;;;;;5012999;28;20037;-65
2022/02/26 04:20:23;;;;;;;0.30;0.30;;;8.30;91.10;;;;;;5013169;28;20471;-65
2022/02/26 04:22:49;;;;;;;0.70;0.40;;;8.30;91.20;;;;;;5012917;28;20037;-66
2022/02/26 04:25:15;;;;;;;0.57;0.40;;;8.30;90.90;;;;;;5012926;28;20026;-67
2022/02/26 04:27:40;;;;;;;0.88;0.45;;;8.30;91.20;;;;;;5012663;28;20044;-65
2022/02/26 04:30:11;;;;;;;0.30;0.30;;;8.30;91.10;;;;;;5013005;28;20040;-65
2022/02/26 04:32:38;;;;;;;0.82;0.40;;;8.30;91.00;;;;;;5013087;28;20261;-70
2022/02/26 04:35:05;;;;;;;0.25;0.20;;;8.20;91.40;;;;;;5012928;28;20025;-66
2022/02/26 04:37:31;;;;;;;2.22;0.40;;;8.20;90.80;;;;;;5012980;28;20109;-66
2022/02/26 04:39:58;;;;;;;0.68;0.50;;;8.20;90.70;;;;;;5012787;28;20455;-66
2022/02/26 04:42:24;;;;;;;0.82;0.50;;;8.10;90.90;;;;;;5012822;28;20053;-66
2022/02/26 04:44:50;;;;;;;0.40;0.40;;;8.10;91.20;;;;;;5012715;28;20382;-66
2022/02/26 04:47:16;;;;;;;0.35;0.35;;;8.00;90.80;;;;;;5012716;28;20113;-64
2022/02/26 04:49:42;;;;;;;0.57;0.35;;;8.00;91.20;;;;;;5012679;28;20060;-66
2022/02/26 04:52:08;;;;;;;0.63;0.40;;;7.90;91.40;;;;;;5012813;28;20054;-66
2022/02/26 04:54:34;;;;;;;0.40;0.40;;;7.90;91.30;;;;;;5012753;28;20048;-66
2022/02/26 04:57:01;;;;;;;0.52;0.35;;;7.80;91.10;;;;;;5012618;28;20022;-68
2022/02/26 04:59:27;;;;;;;0.90;0.40;;;7.70;91.30;;;;;;5012603;28;20104;-64
2022/02/26 05:01:52;;;;;;;0.40;0.40;;;7.70;91.60;;;;;;5015769;28;20022;-65
2022/02/26 05:04:18;;;;;;;0.30;0.30;;;7.60;91.20;;;;;;5016368;28;20036;-65
2022/02/26 05:06:44;;;;;;;0.25;0.25;;;7.60;91.50;;;;;;5016335;28;20034;-66
2022/02/26 05:09:10;;;;;;;0.32;0.30;;;7.60;91.70;;;;;;4998630;28;20026;-65
2022/02/26 05:11:36;;;;;;;0.52;0.40;;;7.60;92.20;;;;;;4982643;28;20502;-66
2022/02/26 05:14:02;;;;;;;0.40;0.40;;;7.60;92.00;;;;;;5016423;28;20390;-65
2022/02/26 05:16:28;;;;;;;0.55;0.40;;;7.60;92.30;;;;;;5016271;28;20049;-66
2022/02/26 05:18:54;;;;;;;0.90;0.45;;;7.70;92.00;;;;;;5016258;28;20476;-64
2022/02/26 05:21:19;;;;;;;0.40;0.40;;;7.70;92.00;;;;;;4998588;28;20471;-65
2022/02/26 05:23:45;;;;;;;0.70;0.50;;;7.70;92.20;;;;;;5016070;28;20037;-65
2022/02/26 05:26:12;;;;;;;21.25;7.95;;;7.70;92.10;;;;;;5016013;28;20030;-65
2022/02/26 05:28:39;;;;;;;1.77;0.80;;;7.60;92.10;;;;;;5015826;28;20030;-65
2022/02/26 05:31:05;;;;;;;0.57;0.57;;;7.60;92.30;;;;;;5015926;28;20478;-66
2022/02/26 05:33:32;;;;;;;1.08;0.50;;;7.50;92.20;;;;;;4998553;28;20034;-65
2022/02/26 05:35:57;;;;;;;0.63;0.40;;;7.60;92.70;;;;;;5016022;28;20032;-65
2022/02/26 05:38:23;;;;;;;0.35;0.35;;;7.60;92.00;;;;;;5015832;28;20025;-66
2022/02/26 05:40:49;;;;;;;1.02;0.50;;;7.50;91.40;;;;;;4998197;28;20029;-64
2022/02/26 05:43:14;;;;;;;0.60;0.50;;;7.50;91.40;;;;;;5015771;28;20550;-66
2022/02/26 05:45:40;;;;;;;0.50;0.50;;;7.40;91.60;;;;;;5015627;28;20056;-65
2022/02/26 05:48:07;;;;;;;0.65;0.63;;;7.40;91.30;;;;;;5015562;28;20034;-66
2022/02/26 05:50:33;;;;;;;0.65;0.50;;;7.50;91.80;;;;;;5015779;28;20030;-65
2022/02/26 05:52:58;;;;;;;0.88;0.63;;;7.40;91.00;;;;;;5015641;28;20538;-67
2022/02/26 05:55:24;;;;;;;1.23;0.70;;;7.50;91.30;;;;;;5015531;28;20379;-65
2022/02/26 05:57:50;;;;;;;0.47;0.47;;;7.50;90.80;;;;;;5015460;28;20029;-65
2022/02/26 06:00:16;;;;;;;1.48;0.80;;;7.50;90.60;;;;;;5015498;28;20062;-70
2022/02/26 06:02:42;;;;;;;0.73;0.55;;;7.40;90.40;;;;;;5015256;28;20033;-66
2022/02/26 06:05:08;;;;;;;0.85;0.43;;;7.40;90.50;;;;;;4981286;28;20030;-67
2022/02/26 06:07:34;;;;;;;0.98;0.65;;;7.40;90.20;;;;;;5015321;28;20034;-66
2022/02/26 06:10:00;;;;;;;0.60;0.60;;;7.40;90.40;;;;;;5015261;28;20026;-65
2022/02/26 06:12:26;;;;;;;1.33;0.70;;;7.40;89.50;;;;;;5014451;28;20053;-66
2022/02/26 06:14:52;;;;;;;1.98;0.60;;;7.30;89.30;;;;;;5015324;28;20022;-66
2022/02/26 06:17:17;;;;;;;1.25;0.57;;;7.30;89.70;;;;;;5015274;28;20479;-67
2022/02/26 06:19:43;;;;;;;1.15;0.60;;;7.30;89.70;;;;;;5015201;28;20088;-66
2022/02/26 06:22:09;;;;;;;0.90;0.68;;;7.30;89.80;;;;;;5015009;28;20148;-67
2022/02/26 06:24:35;;;;;;;1.23;0.55;;;7.30;89.10;;;;;;4997473;28;20044;-68
2022/02/26 06:27:02;;;;;;;0.93;0.70;;;7.30;88.60;;;;;;5014952;28;20037;-73
2022/02/26 06:29:28;;;;;;;2.47;0.60;;;7.30;88.30;;;;;;5015018;28;20033;-67
2022/02/26 06:31:53;;;;;;;1.20;0.85;;;7.30;87.70;;;;;;5015012;28;20053;-67
2022/02/26 06:34:20;;;;;;;1.13;0.60;;;7.40;88.50;;;;;;5014872;28;20037;-69
2022/02/26 06:36:46;;;;;;;1.08;0.70;;;7.50;87.50;;;;;;4997080;28;20436;-66
2022/02/26 06:39:12;;;;;;;1.05;0.60;;;7.50;87.50;;;;;;4996976;28;20117;-68
2022/02/26 06:41:38;;;;;;;1.35;0.73;;;7.60;86.80;;;;;;4997136;28;20121;-67
2022/02/26 06:44:06;;;;;;;1.55;0.70;;;7.60;85.70;;;;;;5014478;28;20403;-66
2022/02/26 06:46:35;;;;;;;2.55;0.90;;;7.60;85.80;;;;;;5014536;28;20110;-71
2022/02/26 06:49:02;;;;;;;2.20;1.00;;;7.70;86.20;;;;;;5016329;28;20037;-65
2022/02/26 06:51:28;;;;;;;1.35;0.88;;;7.90;85.90;;;;;;5016501;28;20057;-66
2022/02/26 06:53:53;;;;;;;1.73;0.90;;;7.90;84.90;;;;;;5014967;28;20057;-67
2022/02/26 06:56:19;;;;;;;2.55;1.10;;;7.90;84.20;;;;;;5014754;28;20510;-66
2022/02/26 06:58:45;;;;;;;1.98;0.90;;;7.90;84.30;;;;;;5014103;28;20467;-67
2022/02/26 07:01:11;;;;;;;1.75;1.00;;;7.90;83.80;;;;;;5014195;28;20459;-68
2022/02/26 07:03:36;;;;;;;1.40;0.80;;;7.90;83.70;;;;;;4997867;28;20034;-67
2022/02/26 07:06:03;;;;;;;3.00;1.20;;;8.00;83.90;;;;;;5014282;28;20044;-68
2022/02/26 07:08:28;;;;;;;1.23;0.95;;;8.00;83.50;;;;;;5013855;28;20042;-65
2022/02/26 07:10:55;;;;;;;1.48;0.90;;;8.10;82.60;;;;;;5014136;28;20111;-67
2022/02/26 07:13:21;;;;;;;3.58;1.40;;;8.10;82.60;;;;;;5013868;28;20060;-65
2022/02/26 07:15:47;;;;;;;2.20;0.82;;;8.30;83.00;;;;;;5013983;28;20447;-67
2022/02/26 07:18:12;;;;;;;3.28;1.10;;;8.60;81.40;;;;;;5014060;28;20379;-70
2022/02/26 07:20:38;;;;;;;1.50;0.90;;;8.70;79.90;;;;;;4996321;28;20034;-66
2022/02/26 07:23:04;;;;;;;1.25;0.63;;;8.80;79.30;;;;;;5013650;28;20026;-66
2022/02/26 07:25:30;;;;;;;1.00;0.70;;;8.80;78.70;;;;;;5013651;28;20026;-66
2022/02/26 07:27:56;;;;;;;3.00;1.00;;;8.80;78.80;;;;;;4995699;28;20046;-65
2022/02/26 07:30:22;;;;;;;6.35;1.00;;;8.80;77.30;;;;;;5012939;28;20034;-68
2022/02/26 07:32:48;;;;;;;1.20;0.70;;;8.70;77.10;;;;;;5013513;28;20058;-65
2022/02/26 07:35:14;;;;;;;1.75;0.93;;;8.90;77.60;;;;;;5013530;28;20026;-70
2022/02/26 07:37:42;;;;;;;2.42;0.70;;;8.90;76.70;;;;;;5013502;28;20054;-67
2022/02/26 07:40:08;;;;;;;1.45;0.70;;;8.90;77.80;;;;;;5013392;28;20108;-66
2022/02/26 07:42:34;;;;;;;2.20;1.23;;;8.90;75.80;;;;;;5013324;28;20026;-66
2022/02/26 07:44:59;;;;;;;1.02;0.70;;;8.90;75.60;;;;;;5013057;28;20101;-66
2022/02/26 07:47:26;;;;;;;3.78;0.80;;;9.00;75.40;;;;;;5013261;28;20088;-68
2022/02/26 07:49:52;;;;;;;1.90;0.80;;;9.00;75.10;;;;;;4995560;28;20463;-68
2022/02/26 07:52:20;;;;;;;2.20;0.90;;;9.10;75.40;;;;;;5013258;28;20053;-72
2022/02/26 07:54:46;;;;;;;2.40;1.00;;;9.20;75.40;;;;;;5013148;28;20026;-70
2022/02/26 07:57:12;;;;;;;2.47;1.00;;;9.30;74.20;;;;;;4995657;28;20022;-69
2022/02/26 07:59:38;;;;;;;2.42;0.88;;;9.40;74.20;;;;;;5012762;28;20387;-66
2022/02/26 08:02:05;;;;;;;1.45;0.60;;;9.50;73.60;;;;;;5013184;28;20087;-68
2022/02/26 08:04:30;;;;;;;3.55;0.85;;;9.40;73.20;;;;;;4995270;28;20034;-67
2022/02/26 08:06:56;;;;;;;2.85;0.80;;;9.40;73.30;;;;;;5012667;28;20042;-68
2022/02/26 08:09:22;;;;;;;1.33;0.68;;;9.40;73.40;;;;;;5012815;28;20018;-73
2022/02/26 08:11:47;;;;;;;3.20;0.85;;;9.30;73.20;;;;;;5012815;28;20376;-67
2022/02/26 08:14:13;;;;;;;1.65;0.60;;;9.20;72.90;;;;;;5013448;28;20026;-70
2022/02/26 08:16:39;;;;;;;3.70;0.75;;;9.20;73.30;;;;;;5013141;28;20018;-69
2022/02/26 08:19:04;;;;;;;1.63;0.82;;;9.20;73.70;;;;;;5012748;28;20049;-69
2022/02/26 08:21:34;;;;;;;1.63;0.70;;;9.30;73.40;;;;;;5012911;28;20026;-70
2022/02/26 08:23:59;;;;;;;2.97;0.88;;;9.40;73.00;;;;;;4995100;28;20026;-74
2022/02/26 08:26:25;;;;;;;0.98;0.70;;;9.40;72.40;;;;;;5012806;28;20030;-71
2022/02/26 08:28:50;;;;;;;0.82;0.60;;;9.40;72.10;;;;;;5013009;28;20034;-73
2022/02/26 08:31:17;;;;;;;0.70;0.50;;;9.40;71.70;;;;;;5013132;28;20037;-71
2022/02/26 08:33:42;;;;;;;1.05;0.70;;;9.40;71.70;;;;;;5013451;28;20101;-72
2022/02/26 08:36:08;;;;;;;0.85;0.68;;;9.50;71.80;;;;;;5017429;28;20423;-76
2022/02/26 08:38:34;;;;;;;1.02;0.50;;;9.60;71.00;;;;;;5019804;28;20037;-71
2022/02/26 08:40:59;;;;;;;2.25;0.70;;;9.70;70.50;;;;;;5019876;28;20029;-74
2022/02/26 08:43:25;;;;;;;2.90;1.00;;;9.80;69.60;;;;;;5001952;28;20026;-71
2022/02/26 08:45:51;;;;;;;0.85;0.50;;;9.90;69.40;;;;;;5019887;28;20046;-72
2022/02/26 08:48:18;;;;;;;2.83;0.65;;;10.00;67.40;;;;;;5019982;28;20041;-74
2022/02/26 08:50:44;;;;;;;2.92;0.88;;;10.00;66.90;;;;;;5018286;28;20026;-69
2022/02/26 08:53:09;;;;;;;4.03;0.80;;;10.10;66.90;;;;;;5014742;28;20395;-70
2022/02/26 08:55:36;;;;;;;6.22;0.65;;;10.10;67.00;;;;;;5009630;28;20463;-71
2022/02/26 08:58:02;;;;;;;1.38;0.65;;;10.00;66.00;;;;;;5004838;28;20411;-71
2022/02/26 09:00:28;;;;;;;1.67;0.70;;;10.00;66.80;;;;;;4982235;28;20105;-73
2022/02/26 09:02:55;;;;;;;1.73;0.77;;;9.90;67.20;;;;;;5005693;28;20030;-72
2022/02/26 09:05:21;;;;;;;1.13;0.60;;;9.90;67.20;;;;;;5016683;28;20022;-71
2022/02/26 09:07:47;;;;;;;5.05;0.88;;;9.90;67.00;;;;;;4995392;28;20048;-72
2022/02/26 09:10:13;;;;;;;4.47;0.73;;;9.80;66.80;;;;;;5016404;28;20061;-71
2022/02/26 09:12:39;;;;;;;1.35;0.60;;;9.80;66.80;;;;;;5008413;28;20036;-72
2022/02/26 09:15:05;;;;;;;1.50;0.80;;;9.70;66.10;;;;;;5015741;28;20098;-71
2022/02/26 09:17:31;;;;;;;2.22;0.80;;;9.70;66.60;;;;;;5019433;28;20034;-70
2022/02/26 09:19:57;;;;;;;1.02;0.60;;;9.70;66.40;;;;;;4991487;28;20036;-70
2022/02/26 09:22:22;;;;;;;3.20;0.70;;;9.70;66.30;;;;;;5001810;28;20053;-71
2022/02/26 09:24:48;;;;;;;3.75;1.10;;;9.80;66.40;;;;;;4989317;28;20034;-72
2022/02/26 09:27:14;;;;;;;0.77;0.60;;;9.90;66.20;;;;;;4981427;28;20117;-74
2022/02/26 09:29:40;;;;;;;3.08;0.80;;;10.00;64.70;;;;;;5000272;28;20038;-72
2022/02/26 09:32:06;;;;;;;2.78;1.02;;;10.00;64.20;;;;;;4999314;28;20460;-70
2022/02/26 09:34:31;;;;;;;4.30;0.70;;;10.10;63.80;;;;;;4999385;28;20124;-73
2022/02/26 09:36:57;;;;;;;2.10;0.80;;;10.20;62.90;;;;;;4978188;28;20067;-72
2022/02/26 09:39:23;;;;;;;3.65;1.63;;;10.20;62.30;;;;;;5010205;23;20481;-73
2022/02/26 09:41:50;;;;;;;4.68;0.90;;;10.20;62.00;;;;;;5006103;28;20365;-71
2022/02/26 09:44:17;;;;;;;4.93;0.80;;;10.30;62.40;;;;;;5001754;28;20033;-70
2022/02/26 09:46:44;;;;;;;4.18;1.00;;;10.30;62.40;;;;;;4983393;28;20043;-75
2022/02/26 09:49:10;;;;;;;4.65;0.88;;;10.20;62.20;;;;;;4974111;28;20086;-71
2022/02/26 09:51:40;;;;;;;3.60;0.90;;;10.20;62.50;;;;;;4977529;28;20472;-73
2022/02/26 09:54:05;;;;;;;1.83;0.77;;;10.20;62.60;;;;;;4978056;28;20026;-70
2022/02/26 09:56:31;;;;;;;2.53;1.00;;;10.10;62.90;;;;;;4979844;28;20106;-76
2022/02/26 09:58:57;;;;;;;2.55;0.88;;;10.10;63.90;;;;;;4976617;28;20380;-73
2022/02/26 10:01:23;;;;;;;1.23;0.70;;;10.10;64.00;;;;;;4978426;28;20030;-72
2022/02/26 10:03:48;;;;;;;1.60;0.82;;;10.10;63.50;;;;;;4977401;28;20019;-75
2022/02/26 10:06:19;;;;;;;2.53;0.63;;;10.00;63.80;;;;;;4977131;28;20065;-73
2022/02/26 10:08:51;;;;;;;2.42;0.80;;;10.00;63.60;;;;;;4976615;28;20034;-75
2022/02/26 10:11:33;;;;;;;2.17;1.00;;;10.00;63.70;;;;;;4975535;28;20027;-75
2022/02/26 10:14:05;;;;;;;1.10;0.70;;;10.10;64.30;;;;;;4976772;28;20503;-70
2022/02/26 10:16:52;;;;;;;1.15;0.50;;;10.20;63.60;;;;;;4976728;28;20042;-73
2022/02/26 10:19:33;;;;;;;3.35;0.70;;;10.20;63.00;;;;;;4976654;28;20019;-74
2022/02/26 10:22:02;;;;;;;1.38;0.80;;;10.30;63.20;;;;;;4976936;28;20201;-73
2022/02/26 10:24:29;;;;;;;1.92;0.80;;;10.40;62.90;;;;;;4976783;28;20111;-77
2022/02/26 10:26:59;;;;;;;2.33;1.10;;;10.50;62.60;;;;;;4976807;28;20031;-76
2022/02/26 10:29:25;;;;;;;2.65;0.90;;;10.50;62.10;;;;;;4959050;28;20027;-75
2022/02/26 10:31:53;;;;;;;1.02;0.70;;;10.70;61.90;;;;;;4976588;28;20026;-78
2022/02/26 10:34:27;;;;;;;2.28;0.85;;;10.80;60.60;;;;;;4976279;28;20050;-70
2022/02/26 10:37:02;;;;;;;1.10;0.73;;;10.80;61.20;;;;;;4976381;28;20074;-81
2022/02/26 10:39:52;;;;;;;3.97;0.90;;;10.80;61.10;;;;;;4975999;28;20039;-76
2022/02/26 10:42:32;;;;;;;2.20;0.93;;;10.70;58.30;;;;;;4968678;28;20118;-74
2022/02/26 10:45:09;;;;;;;2.00;0.90;;;10.70;60.10;;;;;;4976150;28;20030;-71
2022/02/26 10:47:41;;;;;;;2.20;0.90;;;10.80;58.70;;;;;;4975963;28;20400;-71
2022/02/26 10:50:18;;;;;;;1.90;1.05;;;10.80;59.30;;;;;;4976070;28;20108;-72
2022/02/26 10:53:05;;;;;;;1.48;0.80;;;10.90;57.70;;;;;;4957777;28;20030;-72
2022/02/26 10:55:53;;;;;;;3.33;1.25;;;11.00;58.70;;;;;;4975638;28;20034;-72
2022/02/26 10:58:23;;;;;;;1.13;0.80;;;11.00;56.80;;;;;;4970625;28;20499;-72
2022/02/26 11:00:49;;;;;;;1.50;0.82;;;11.10;56.90;;;;;;4974500;28;20030;-74
2022/02/26 11:03:16;;;;;;;1.60;0.90;;;11.30;56.90;;;;;;4975532;28;20031;-72
2022/02/26 11:05:42;;;;;;;2.22;0.82;;;11.50;56.50;;;;;;4957735;28;20027;-78
2022/02/26 11:08:12;;;;;;;2.45;1.00;;;11.60;55.90;;;;;;4975148;28;20388;-73
2022/02/26 11:10:39;;;;;;;1.90;0.82;;;11.70;55.00;;;;;;4975721;28;20165;-74
2022/02/26 11:13:05;;;;;;;1.80;0.90;;;11.60;54.80;;;;;;4974734;28;20089;-72
2022/02/26 11:15:32;;;;;;;2.65;0.93;;;11.60;54.90;;;;;;4974896;28;20093;-76
2022/02/26 11:18:00;;;;;;;3.10;0.80;;;11.50;54.50;;;;;;4975066;28;20030;-71
2022/02/26 11:20:28;;;;;;;2.17;0.93;;;11.60;54.60;;;;;;4975252;28;20041;-75
2022/02/26 11:22:57;;;;;;;1.50;0.80;;;11.70;54.10;;;;;;4975551;28;20111;-73
2022/02/26 11:25:24;;;;;;;1.42;0.80;;;11.80;53.70;;;;;;4975079;28;20026;-81
2022/02/26 11:27:50;;;;;;;2.08;0.80;;;11.90;53.10;;;;;;4975268;28;20037;-71
2022/02/26 11:30:29;;;;;;;1.13;0.65;;;11.80;53.30;;;;;;4975012;28;20023;-73
2022/02/26 11:32:56;;;;;;;1.20;0.65;;;11.90;52.80;;;;;;4957730;28;20023;-70
2022/02/26 11:35:28;;;;;;;2.80;1.02;;;12.00;52.80;;;;;;4975147;28;20027;-69
2022/02/26 11:38:17;;;;;;;2.15;1.00;;;12.20;53.10;;;;;;4974924;28;20033;-73
2022/02/26 11:40:42;;;;;;;1.92;1.00;;;12.40;51.20;;;;;;4975290;28;20034;-71
2022/02/26 11:43:31;;;;;;;1.77;1.00;;;12.40;51.40;;;;;;4975307;28;20034;-75
2022/02/26 11:45:57;;;;;;;1.42;0.73;;;12.40;50.10;;;;;;4975204;28;20054;-71
2022/02/26 11:48:34;;;;;;;1.92;0.95;;;12.30;50.20;;;;;;4969310;28;20519;-69
2022/02/26 11:51:00;;;;;;;0.80;0.70;;;12.10;50.80;;;;;;4939472;29;20131;-67
2022/02/26 11:53:27;;;;;;;3.65;0.90;;;12.10;51.60;;;;;;4970863;28;20027;-73
2022/02/26 11:55:57;;;;;;;5.03;1.45;;;12.10;50.90;;;;;;4974905;28;20030;-72
2022/02/26 11:58:34;;;;;;;2.35;1.02;;;12.10;52.00;;;;;;4974858;28;20034;-74
2022/02/26 12:01:17;;;;;;;4.50;1.50;;;12.30;52.00;;;;;;4974546;28;20031;-68
2022/02/26 12:03:49;;;;;;;2.53;0.98;;;12.40;51.70;;;;;;4974433;28;20089;-68
2022/02/26 12:06:18;;;;;;;2.65;0.90;;;12.40;50.70;;;;;;4974112;28;20046;-72
2022/02/26 12:09:01;;;;;;;1.95;0.80;;;12.30;50.60;;;;;;4956525;28;20492;-74
2022/02/26 12:11:33;;;;;;;2.08;0.90;;;12.30;50.20;;;;;;4973534;28;20065;-71
2022/02/26 12:14:27;;;;;;;1.67;0.73;;;12.40;50.20;;;;;;4974111;28;20035;-73
2022/02/26 12:17:04;;;;;;;2.50;1.03;;;12.60;48.90;;;;;;4974131;28;20433;-74
2022/02/26 12:19:30;;;;;;;2.78;1.10;;;12.50;49.40;;;;;;4957152;28;20019;-74
2022/02/26 12:22:02;;;;;;;3.05;0.75;;;12.60;49.20;;;;;;4967832;28;20033;-71
2022/02/26 12:24:30;;;;;;;2.67;1.00;;;12.50;49.10;;;;;;4955309;29;20031;-76
2022/02/26 12:27:10;;;;;;;5.07;1.20;;;12.60;47.90;;;;;;4955503;29;20035;-77
2022/02/26 12:29:44;;;;;;;2.50;0.98;;;12.70;48.30;;;;;;4956148;28;20515;-77
2022/02/26 12:32:14;;;;;;;2.80;0.93;;;12.80;48.00;;;;;;4938809;29;20028;-78
2022/02/26 12:34:52;;;;;;;3.08;1.00;;;12.70;48.80;;;;;;4955931;29;20539;-76
2022/02/26 12:37:19;;;;;;;1.80;0.93;;;12.60;47.30;;;;;;4955568;29;20464;-75
2022/02/26 12:39:50;;;;;;;1.23;0.68;;;12.50;47.50;;;;;;4954736;28;20405;-76
2022/02/26 12:42:24;;;;;;;3.05;0.98;;;12.70;47.80;;;;;;4955676;29;20123;-79
2022/02/26 12:44:52;;;;;;;1.73;0.88;;;12.70;47.70;;;;;;4964428;28;20030;-72
2022/02/26 12:47:19;;;;;;;2.15;1.13;;;12.80;46.90;;;;;;4979378;28;20066;-73
2022/02/26 12:49:45;;;;;;;1.70;0.90;;;12.80;47.10;;;;;;4974174;28;20027;-75
2022/02/26 12:52:12;;;;;;;3.85;1.40;;;12.90;46.70;;;;;;4957072;28;20042;-73